sensor_id;sensor_type;location;lat;lon;timestamp;pressure;altitude;pressure_sealevel;temperature;humidity
49030;BME280;43337;52.070;4.508;2023-05-29T00:00:12;102594.28;;;12.10;100.00
49030;BME280;43337;52.070;4.508;2023-05-29T00:02:39;102604.84;;;12.10;100.00
49030;BME280;43337;52.070;4.508;2023-05-29T00:05:13;102601.38;;;12.06;100.00
49030;BME280;43337;52.070;4.508;2023-05-29T00:07:39;102595.28;;;12.04;100.00
49030;BME280;43337;52.070;4.508;2023-05-29T00:10:06;102596.16;;;12.05;100.00
49030;BME280;43337;52.070;4.508;2023-05-29T00:12:32;102600.56;;;12.03;100.00
49030;BME280;43337;52.070;4.508;2023-05-29T00:14:57;102592.69;;;12.01;100.00
49030;BME280;43337;52.070;4.508;2023-05-29T00:17:23;102587.47;;;11.98;100.00
49030;BME280;43337;52.070;4.508;2023-05-29T00:19:48;102576.09;;;11.94;100.00
49030;BME280;43337;52.070;4.508;2023-05-29T00:22:13;102592.75;;;11.98;100.00
49030;BME280;43337;52.070;4.508;2023-05-29T00:24:39;102603.25;;;12.01;100.00
49030;BME280;43337;52.070;4.508;2023-05-29T00:27:04;102592.75;;;12.00;100.00
49030;BME280;43337;52.070;4.508;2023-05-29T00:29:29;102596.31;;;11.97;100.00
49030;BME280;43337;52.070;4.508;2023-05-29T00:31:56;102580.63;;;11.89;100.00
49030;BME280;43337;52.070;4.508;2023-05-29T00:34:22;102595.53;;;11.92;100.00
49030;BME280;43337;52.070;4.508;2023-05-29T00:36:48;102588.66;;;11.82;100.00
49030;BME280;43337;52.070;4.508;2023-05-29T00:39:14;102597.50;;;11.79;100.00
49030;BME280;43337;52.070;4.508;2023-05-29T00:41:40;102597.59;;;11.74;100.00
49030;BME280;43337;52.070;4.508;2023-05-29T00:44:05;102608.94;;;11.78;100.00
49030;BME280;43337;52.070;4.508;2023-05-29T00:46:31;102617.81;;;11.74;100.00
49030;BME280;43337;52.070;4.508;2023-05-29T00:48:59;102609.09;;;11.70;100.00
49030;BME280;43337;52.070;4.508;2023-05-29T00:51:27;102607.66;;;11.54;100.00
49030;BME280;43337;52.070;4.508;2023-05-29T00:53:53;102619.00;;;11.58;100.00
49030;BME280;43337;52.070;4.508;2023-05-29T00:56:20;102625.09;;;11.61;100.00
49030;BME280;43337;52.070;4.508;2023-05-29T00:58:47;102617.25;;;11.57;100.00
49030;BME280;43337;52.070;4.508;2023-05-29T01:01:13;102616.53;;;11.48;100.00
49030;BME280;43337;52.070;4.508;2023-05-29T01:03:39;102623.66;;;11.43;100.00
49030;BME280;43337;52.070;4.508;2023-05-29T01:06:06;102618.38;;;11.43;100.00
49030;BME280;43337;52.070;4.508;2023-05-29T01:08:32;102629.75;;;11.47;100.00
49030;BME280;43337;52.070;4.508;2023-05-29T01:11:06;102607.19;;;11.31;100.00
49030;BME280;43337;52.070;4.508;2023-05-29T01:13:34;102634.16;;;11.45;100.00
49030;BME280;43337;52.070;4.508;2023-05-29T01:18:51;102633.34;;;11.41;100.00
49030;BME280;43337;52.070;4.508;2023-05-29T01:26:52;102639.69;;;11.30;100.00
49030;BME280;43337;52.070;4.508;2023-05-29T01:29:26;102645.09;;;11.23;100.00
49030;BME280;43337;52.070;4.508;2023-05-29T01:31:53;102637.25;;;11.17;100.00
49030;BME280;43337;52.070;4.508;2023-05-29T01:34:19;102635.50;;;11.18;100.00
49030;BME280;43337;52.070;4.508;2023-05-29T01:36:45;102646.09;;;11.16;100.00
49030;BME280;43337;52.070;4.508;2023-05-29T01:39:12;102645.28;;;11.11;100.00
49030;BME280;43337;52.070;4.508;2023-05-29T01:41:38;102652.25;;;11.14;100.00
49030;BME280;43337;52.070;4.508;2023-05-29T01:44:06;102647.88;;;11.13;100.00
49030;BME280;43337;52.070;4.508;2023-05-29T01:46:37;102646.25;;;11.06;100.00
49030;BME280;43337;52.070;4.508;2023-05-29T01:49:03;102647.19;;;11.03;100.00
49030;BME280;43337;52.070;4.508;2023-05-29T01:51:29;102648.91;;;11.03;100.00
49030;BME280;43337;52.070;4.508;2023-05-29T01:53:57;102651.63;;;10.98;100.00
49030;BME280;43337;52.070;4.508;2023-05-29T01:56:25;102638.69;;;10.83;100.00
49030;BME280;43337;52.070;4.508;2023-05-29T01:58:53;102662.31;;;10.89;100.00
49030;BME280;43337;52.070;4.508;2023-05-29T02:01:20;102667.59;;;10.87;100.00
49030;BME280;43337;52.070;4.508;2023-05-29T02:03:46;102664.13;;;10.84;100.00
49030;BME280;43337;52.070;4.508;2023-05-29T02:06:11;102652.81;;;10.77;100.00
49030;BME280;43337;52.070;4.508;2023-05-29T02:08:37;102657.19;;;10.78;100.00
49030;BME280;43337;52.070;4.508;2023-05-29T02:11:02;102650.28;;;10.69;100.00
49030;BME280;43337;52.070;4.508;2023-05-29T02:13:28;102676.53;;;10.77;100.00
49030;BME280;43337;52.070;4.508;2023-05-29T02:15:53;102644.19;;;10.66;100.00
49030;BME280;43337;52.070;4.508;2023-05-29T02:18:18;102654.69;;;10.69;100.00
49030;BME280;43337;52.070;4.508;2023-05-29T02:20:44;102670.41;;;10.75;100.00
49030;BME280;43337;52.070;4.508;2023-05-29T02:23:10;102668.63;;;10.75;100.00
49030;BME280;43337;52.070;4.508;2023-05-29T02:25:35;102666.06;;;10.72;100.00
49030;BME280;43337;52.070;4.508;2023-05-29T02:28:01;102656.50;;;10.65;100.00
49030;BME280;43337;52.070;4.508;2023-05-29T02:30:28;102663.44;;;10.71;100.00
49030;BME280;43337;52.070;4.508;2023-05-29T02:32:53;102660.84;;;10.69;100.00
49030;BME280;43337;52.070;4.508;2023-05-29T02:35:19;102648.63;;;10.62;100.00
49030;BME280;43337;52.070;4.508;2023-05-29T02:37:47;102644.31;;;10.58;100.00
49030;BME280;43337;52.070;4.508;2023-05-29T02:40:13;102669.53;;;10.74;100.00
49030;BME280;43337;52.070;4.508;2023-05-29T02:42:38;102658.97;;;10.78;100.00
49030;BME280;43337;52.070;4.508;2023-05-29T02:45:04;102654.53;;;10.80;100.00
49030;BME280;43337;52.070;4.508;2023-05-29T02:47:30;102667.69;;;10.80;100.00
49030;BME280;43337;52.070;4.508;2023-05-29T02:49:55;102668.56;;;10.82;100.00
49030;BME280;43337;52.070;4.508;2023-05-29T02:52:21;102653.69;;;10.76;100.00
49030;BME280;43337;52.070;4.508;2023-05-29T02:54:48;102665.00;;;10.86;100.00
49030;BME280;43337;52.070;4.508;2023-05-29T02:57:13;102651.84;;;10.83;100.00
49030;BME280;43337;52.070;4.508;2023-05-29T02:59:39;102651.88;;;10.80;100.00
49030;BME280;43337;52.070;4.508;2023-05-29T03:02:04;102655.44;;;10.79;100.00
49030;BME280;43337;52.070;4.508;2023-05-29T03:04:30;102656.25;;;10.82;100.00
49030;BME280;43337;52.070;4.508;2023-05-29T03:06:55;102668.56;;;10.82;100.00
49030;BME280;43337;52.070;4.508;2023-05-29T03:09:20;102664.19;;;10.81;100.00
49030;BME280;43337;52.070;4.508;2023-05-29T03:11:46;102665.97;;;10.79;100.00
49030;BME280;43337;52.070;4.508;2023-05-29T03:14:13;102672.09;;;10.79;100.00
49030;BME280;43337;52.070;4.508;2023-05-29T03:16:39;102672.97;;;10.81;100.00
49030;BME280;43337;52.070;4.508;2023-05-29T03:19:06;102663.38;;;10.75;100.00
49030;BME280;43337;52.070;4.508;2023-05-29T03:21:32;102654.59;;;10.75;100.00
49030;BME280;43337;52.070;4.508;2023-05-29T03:23:58;102652.88;;;10.74;100.00
49030;BME280;43337;52.070;4.508;2023-05-29T03:26:23;102655.47;;;10.77;100.00
49030;BME280;43337;52.070;4.508;2023-05-29T03:28:48;102660.72;;;10.75;100.00
49030;BME280;43337;52.070;4.508;2023-05-29T03:31:14;102653.75;;;10.73;100.00
49030;BME280;43337;52.070;4.508;2023-05-29T03:33:39;102645.13;;;10.62;100.00
49030;BME280;43337;52.070;4.508;2023-05-29T03:36:05;102645.13;;;10.62;100.00
49030;BME280;43337;52.070;4.508;2023-05-29T03:38:32;102659.06;;;10.68;100.00
49030;BME280;43337;52.070;4.508;2023-05-29T03:40:58;102653.00;;;10.63;100.00
49030;BME280;43337;52.070;4.508;2023-05-29T03:43:23;102642.56;;;10.56;100.00
49030;BME280;43337;52.070;4.508;2023-05-29T03:45:48;102644.31;;;10.58;100.00
49030;BME280;43337;52.070;4.508;2023-05-29T03:48:14;102674.88;;;10.68;100.00
49030;BME280;43337;52.070;4.508;2023-05-29T03:50:40;102671.41;;;10.66;100.00
49030;BME280;43337;52.070;4.508;2023-05-29T03:53:05;102655.66;;;10.62;100.00
49030;BME280;43337;52.070;4.508;2023-05-29T03:55:31;102673.06;;;10.72;100.00
49030;BME280;43337;52.070;4.508;2023-05-29T03:57:56;102667.91;;;10.66;100.00
49030;BME280;43337;52.070;4.508;2023-05-29T04:00:22;102667.88;;;10.69;100.00
49030;BME280;43337;52.070;4.508;2023-05-29T04:02:47;102684.44;;;10.77;100.00
49030;BME280;43337;52.070;4.508;2023-05-29T04:05:12;102672.16;;;10.74;100.00
49030;BME280;43337;52.070;4.508;2023-05-29T04:07:39;102672.13;;;10.78;100.00
49030;BME280;43337;52.070;4.508;2023-05-29T04:10:05;102688.72;;;10.86;100.00
49030;BME280;43337;52.070;4.508;2023-05-29T04:12:32;102686.91;;;10.89;100.00
49030;BME280;43337;52.070;4.508;2023-05-29T04:14:58;102681.66;;;10.88;100.00
49030;BME280;43337;52.070;4.508;2023-05-29T04:17:23;102685.09;;;10.93;100.00
49030;BME280;43337;52.070;4.508;2023-05-29T04:19:48;102686.78;;;10.97;100.00
49030;BME280;43337;52.070;4.508;2023-05-29T04:22:14;102690.25;;;11.00;100.00
49030;BME280;43337;52.070;4.508;2023-05-29T04:24:40;102688.44;;;11.03;100.00
49030;BME280;43337;52.070;4.508;2023-05-29T04:27:07;102680.59;;;11.01;100.00
49030;BME280;43337;52.070;4.508;2023-05-29T04:29:34;102693.69;;;11.07;100.00
49030;BME280;43337;52.070;4.508;2023-05-29T04:32:00;102688.44;;;11.04;100.00
49030;BME280;43337;52.070;4.508;2023-05-29T04:34:29;102696.28;;;11.09;100.00
49030;BME280;43337;52.070;4.508;2023-05-29T04:36:56;102703.28;;;11.11;100.00
49030;BME280;43337;52.070;4.508;2023-05-29T04:39:23;102710.25;;;11.14;100.00
49030;BME280;43337;52.070;4.508;2023-05-29T04:41:48;102713.75;;;11.14;100.00
49030;BME280;43337;52.070;4.508;2023-05-29T04:44:15;102712.88;;;11.15;100.00
49030;BME280;43337;52.070;4.508;2023-05-29T04:46:40;102704.97;;;11.15;100.00
49030;BME280;43337;52.070;4.508;2023-05-29T04:49:09;102715.41;;;11.21;100.00
49030;BME280;43337;52.070;4.508;2023-05-29T04:51:35;102714.53;;;11.21;100.00
49030;BME280;43337;52.070;4.508;2023-05-29T04:54:01;102694.50;;;11.09;100.00
49030;BME280;43337;52.070;4.508;2023-05-29T04:56:27;102719.00;;;11.19;100.00
49030;BME280;43337;52.070;4.508;2023-05-29T04:58:53;102708.44;;;11.17;100.00
49030;BME280;43337;52.070;4.508;2023-05-29T05:01:19;102712.81;;;11.20;100.00
49030;BME280;43337;52.070;4.508;2023-05-29T05:03:44;102718.84;;;11.28;100.00
49030;BME280;43337;52.070;4.508;2023-05-29T05:06:10;102724.91;;;11.33;100.00
49030;BME280;43337;52.070;4.508;2023-05-29T05:08:36;102726.59;;;11.37;100.00
49030;BME280;43337;52.070;4.508;2023-05-29T05:11:02;102710.81;;;11.36;100.00
49030;BME280;43337;52.070;4.508;2023-05-29T05:13:27;102722.94;;;11.47;100.00
49030;BME280;43337;52.070;4.508;2023-05-29T05:15:53;102716.78;;;11.47;100.00
49030;BME280;43337;52.070;4.508;2023-05-29T05:18:19;102729.84;;;11.55;100.00
49030;BME280;43337;52.070;4.508;2023-05-29T05:20:45;102723.72;;;11.54;100.00
49030;BME280;43337;52.070;4.508;2023-05-29T05:23:10;102722.72;;;11.60;100.00
49030;BME280;43337;52.070;4.508;2023-05-29T05:25:36;102723.41;;;11.71;100.00
49030;BME280;43337;52.070;4.508;2023-05-29T05:28:03;102734.84;;;11.73;100.00
49030;BME280;43337;52.070;4.508;2023-05-29T05:30:29;102725.97;;;11.76;100.00
49030;BME280;43337;52.070;4.508;2023-05-29T05:32:54;102730.31;;;11.80;100.00
49030;BME280;43337;52.070;4.508;2023-05-29T05:35:21;102723.28;;;11.80;100.00
49030;BME280;43337;52.070;4.508;2023-05-29T05:37:47;102735.44;;;11.92;100.00
49030;BME280;43337;52.070;4.508;2023-05-29T05:40:12;102737.94;;;11.98;100.00
49030;BME280;43337;52.070;4.508;2023-05-29T05:42:38;102736.13;;;12.03;100.00
49030;BME280;43337;52.070;4.508;2023-05-29T05:45:04;102731.63;;;12.07;100.00
49030;BME280;43337;52.070;4.508;2023-05-29T05:47:30;102742.94;;;12.13;100.00
49030;BME280;43337;52.070;4.508;2023-05-29T05:49:56;102752.53;;;12.17;100.00
49030;BME280;43337;52.070;4.508;2023-05-29T05:52:21;102740.16;;;12.23;100.00
49030;BME280;43337;52.070;4.508;2023-05-29T05:54:48;102726.94;;;12.23;100.00
49030;BME280;43337;52.070;4.508;2023-05-29T05:57:13;102733.88;;;12.28;100.00
49030;BME280;43337;52.070;4.508;2023-05-29T05:59:38;102729.34;;;12.33;100.00
49030;BME280;43337;52.070;4.508;2023-05-29T06:02:04;102724.97;;;12.34;100.00
49030;BME280;43337;52.070;4.508;2023-05-29T06:04:29;102730.97;;;12.42;100.00
49030;BME280;43337;52.070;4.508;2023-05-29T06:06:55;102732.59;;;12.48;100.00
49030;BME280;43337;52.070;4.508;2023-05-29T06:09:21;102739.47;;;12.56;100.00
49030;BME280;43337;52.070;4.508;2023-05-29T06:11:46;102756.03;;;12.64;100.00
49030;BME280;43337;52.070;4.508;2023-05-29T06:14:13;102726.19;;;12.59;100.00
49030;BME280;43337;52.070;4.508;2023-05-29T06:16:38;102749.72;;;12.73;100.00
49030;BME280;43337;52.070;4.508;2023-05-29T06:19:03;102733.16;;;12.63;100.00
49030;BME280;43337;52.070;4.508;2023-05-29T06:21:29;102737.63;;;12.61;100.00
49030;BME280;43337;52.070;4.508;2023-05-29T06:23:55;102744.44;;;12.71;100.00
49030;BME280;43337;52.070;4.508;2023-05-29T06:26:21;102745.28;;;12.74;100.00
49030;BME280;43337;52.070;4.508;2023-05-29T06:28:46;102745.25;;;12.77;100.00
49030;BME280;43337;52.070;4.508;2023-05-29T06:31:11;102749.50;;;12.82;100.00
49030;BME280;43337;52.070;4.508;2023-05-29T06:33:37;102713.69;;;12.69;100.00
49030;BME280;43337;52.070;4.508;2023-05-29T06:36:04;102735.38;;;12.85;100.00
49030;BME280;43337;52.070;4.508;2023-05-29T06:38:29;102728.25;;;12.87;100.00
49030;BME280;43337;52.070;4.508;2023-05-29T06:40:54;102736.06;;;12.93;100.00
49030;BME280;43337;52.070;4.508;2023-05-29T06:43:20;102742.91;;;13.02;100.00
49030;BME280;43337;52.070;4.508;2023-05-29T06:45:45;102715.91;;;12.87;100.00
49030;BME280;43337;52.070;4.508;2023-05-29T06:48:11;102747.94;;;13.14;100.00
49030;BME280;43337;52.070;4.508;2023-05-29T06:50:36;102751.38;;;13.19;100.00
49030;BME280;43337;52.070;4.508;2023-05-29T06:53:01;102748.56;;;13.27;100.00
49030;BME280;43337;52.070;4.508;2023-05-29T06:55:27;102742.25;;;13.34;100.00
49030;BME280;43337;52.070;4.508;2023-05-29T06:57:52;102742.94;;;13.40;100.00
49030;BME280;43337;52.070;4.508;2023-05-29T07:00:18;102743.00;;;13.39;100.00
49030;BME280;43337;52.070;4.508;2023-05-29T07:02:43;102764.03;;;13.43;100.00
49030;BME280;43337;52.070;4.508;2023-05-29T07:05:08;102741.25;;;13.38;100.00
49030;BME280;43337;52.070;4.508;2023-05-29T07:07:34;102750.63;;;13.51;98.74
49030;BME280;43337;52.070;4.508;2023-05-29T07:09:59;102760.91;;;13.63;97.78
49030;BME280;43337;52.070;4.508;2023-05-29T07:12:26;102755.44;;;13.71;97.22
49030;BME280;43337;52.070;4.508;2023-05-29T07:14:51;102729.28;;;13.59;96.36
49030;BME280;43337;52.070;4.508;2023-05-29T07:17:16;102758.56;;;13.87;94.48
49030;BME280;43337;52.070;4.508;2023-05-29T07:19:42;102757.50;;;13.94;94.73
49030;BME280;43337;52.070;4.508;2023-05-29T07:22:07;102759.94;;;14.02;94.52
49030;BME280;43337;52.070;4.508;2023-05-29T07:24:32;102752.78;;;14.05;93.42
49030;BME280;43337;52.070;4.508;2023-05-29T07:26:58;102760.38;;;14.19;93.04
49030;BME280;43337;52.070;4.508;2023-05-29T07:29:24;102766.34;;;14.27;92.24
49030;BME280;43337;52.070;4.508;2023-05-29T07:31:50;102757.41;;;14.31;92.07
49030;BME280;43337;52.070;4.508;2023-05-29T07:34:16;102771.25;;;14.41;92.44
49030;BME280;43337;52.070;4.508;2023-05-29T07:37:05;102775.28;;;14.56;86.02
49030;BME280;43337;52.070;4.508;2023-05-29T07:39:32;102766.97;;;14.70;92.00
49030;BME280;43337;52.070;4.508;2023-05-29T07:42:02;102753.78;;;14.67;90.27
49030;BME280;43337;52.070;4.508;2023-05-29T07:44:27;102734.41;;;14.64;90.60
49030;BME280;43337;52.070;4.508;2023-05-29T07:46:52;102762.94;;;14.86;91.04
49030;BME280;43337;52.070;4.508;2023-05-29T07:49:19;102757.63;;;14.86;89.66
49030;BME280;43337;52.070;4.508;2023-05-29T07:51:45;102753.06;;;14.91;89.72
49030;BME280;43337;52.070;4.508;2023-05-29T07:54:10;102752.19;;;14.90;90.06
49030;BME280;43337;52.070;4.508;2023-05-29T07:56:36;102768.63;;;15.03;88.29
49030;BME280;43337;52.070;4.508;2023-05-29T07:59:02;102775.44;;;15.12;87.97
49030;BME280;43337;52.070;4.508;2023-05-29T08:01:28;102767.50;;;15.10;86.34
49030;BME280;43337;52.070;4.508;2023-05-29T08:03:54;102773.41;;;15.20;85.62
49030;BME280;43337;52.070;4.508;2023-05-29T08:06:19;102785.28;;;15.36;86.67
49030;BME280;43337;52.070;4.508;2023-05-29T08:08:44;102783.38;;;15.42;84.91
49030;BME280;43337;52.070;4.508;2023-05-29T08:11:10;102791.34;;;15.42;84.00
49030;BME280;43337;52.070;4.508;2023-05-29T08:13:36;102770.47;;;15.29;83.49
49030;BME280;43337;52.070;4.508;2023-05-29T08:16:01;102794.06;;;15.38;81.78
49030;BME280;43337;52.070;4.508;2023-05-29T08:18:26;102787.84;;;15.39;82.09
49030;BME280;43337;52.070;4.508;2023-05-29T08:20:52;102785.09;;;15.43;80.80
49030;BME280;43337;52.070;4.508;2023-05-29T08:23:18;102795.41;;;15.52;79.79
49030;BME280;43337;52.070;4.508;2023-05-29T08:25:43;102803.97;;;15.61;79.14
49030;BME280;43337;52.070;4.508;2023-05-29T08:28:09;102786.19;;;15.65;79.53
49030;BME280;43337;52.070;4.508;2023-05-29T08:30:34;102806.19;;;15.75;76.93
49030;BME280;43337;52.070;4.508;2023-05-29T08:33:00;102785.97;;;15.71;75.76
49030;BME280;43337;52.070;4.508;2023-05-29T08:35:25;102789.19;;;15.81;75.35
49030;BME280;43337;52.070;4.508;2023-05-29T08:37:50;102788.69;;;15.96;74.69
49030;BME280;43337;52.070;4.508;2023-05-29T08:40:16;102807.69;;;16.10;74.27
49030;BME280;43337;52.070;4.508;2023-05-29T08:42:52;102809.63;;;16.05;69.10
49030;BME280;43337;52.070;4.508;2023-05-29T08:45:22;102806.25;;;16.00;71.65
49030;BME280;43337;52.070;4.508;2023-05-29T08:47:53;102812.28;;;16.05;71.46
49030;BME280;43337;52.070;4.508;2023-05-29T08:50:20;102807.38;;;16.20;72.59
49030;BME280;43337;52.070;4.508;2023-05-29T08:52:46;102805.13;;;16.32;70.23
49030;BME280;43337;52.070;4.508;2023-05-29T08:55:11;102799.81;;;16.32;68.49
49030;BME280;43337;52.070;4.508;2023-05-29T08:57:37;102811.06;;;16.41;67.86
49030;BME280;43337;52.070;4.508;2023-05-29T09:00:08;102800.41;;;16.41;68.34
49030;BME280;43337;52.070;4.508;2023-05-29T09:02:41;102811.38;;;16.56;68.06
49030;BME280;43337;52.070;4.508;2023-05-29T09:05:09;102795.41;;;16.56;68.56
49030;BME280;43337;52.070;4.508;2023-05-29T09:07:35;102816.31;;;16.67;68.08
49030;BME280;43337;52.070;4.508;2023-05-29T09:10:06;102792.38;;;16.67;68.03
49030;BME280;43337;52.070;4.508;2023-05-29T09:12:33;102800.75;;;16.81;67.49
49030;BME280;43337;52.070;4.508;2023-05-29T09:14:58;102791.44;;;16.93;66.99
49030;BME280;43337;52.070;4.508;2023-05-29T09:17:24;102792.19;;;16.97;66.10
49030;BME280;43337;52.070;4.508;2023-05-29T09:19:55;102806.06;;;17.05;65.31
49030;BME280;43337;52.070;4.508;2023-05-29T09:22:20;102807.66;;;17.11;65.47
49030;BME280;43337;52.070;4.508;2023-05-29T09:24:47;102794.38;;;17.09;63.40
49030;BME280;43337;52.070;4.508;2023-05-29T09:27:13;102804.03;;;17.12;63.10
49030;BME280;43337;52.070;4.508;2023-05-29T09:29:40;102780.59;;;16.98;62.12
49030;BME280;43337;52.070;4.508;2023-05-29T09:32:11;102804.97;;;17.11;63.15
49030;BME280;43337;52.070;4.508;2023-05-29T09:34:37;102796.09;;;17.10;62.91
49030;BME280;43337;52.070;4.508;2023-05-29T09:37:03;102806.34;;;17.21;62.07
49030;BME280;43337;52.070;4.508;2023-05-29T09:42:12;102793.47;;;17.32;60.10
49030;BME280;43337;52.070;4.508;2023-05-29T09:44:37;102802.84;;;17.42;61.94
49030;BME280;43337;52.070;4.508;2023-05-29T09:47:03;102798.16;;;17.49;61.83
49030;BME280;43337;52.070;4.508;2023-05-29T09:49:31;102797.69;;;17.60;62.37
49030;BME280;43337;52.070;4.508;2023-05-29T09:51:57;102775.47;;;17.61;62.14
49030;BME280;43337;52.070;4.508;2023-05-29T09:54:26;102783.66;;;17.78;61.66
49030;BME280;43337;52.070;4.508;2023-05-29T09:56:54;102786.19;;;17.81;61.33
49030;BME280;43337;52.070;4.508;2023-05-29T09:59:23;102777.94;;;17.87;59.75
49030;BME280;43337;52.070;4.508;2023-05-29T10:01:49;102780.22;;;17.96;59.44
49030;BME280;43337;52.070;4.508;2023-05-29T10:04:22;102790.22;;;18.12;57.89
49030;BME280;43337;52.070;4.508;2023-05-29T10:06:50;102775.91;;;18.14;57.91
49030;BME280;43337;52.070;4.508;2023-05-29T10:09:17;102787.28;;;18.18;58.05
49030;BME280;43337;52.070;4.508;2023-05-29T10:11:43;102774.69;;;18.21;58.73
49030;BME280;43337;52.070;4.508;2023-05-29T10:14:15;102785.91;;;18.29;54.59
49030;BME280;43337;52.070;4.508;2023-05-29T10:16:46;102777.75;;;18.33;56.88
49030;BME280;43337;52.070;4.508;2023-05-29T10:19:21;102789.09;;;18.38;54.83
49030;BME280;43337;52.070;4.508;2023-05-29T10:21:51;102755.03;;;18.24;56.55
49030;BME280;43337;52.070;4.508;2023-05-29T10:24:18;102774.00;;;18.37;56.61
49030;BME280;43337;52.070;4.508;2023-05-29T10:26:47;102774.94;;;18.36;55.56
49030;BME280;43337;52.070;4.508;2023-05-29T10:29:34;102794.84;;;18.49;53.49
49030;BME280;43337;52.070;4.508;2023-05-29T10:34:44;102783.47;;;18.64;55.78
49030;BME280;43337;52.070;4.508;2023-05-29T10:37:27;102769.59;;;18.56;51.65
49030;BME280;43337;52.070;4.508;2023-05-29T10:40:10;102780.59;;;18.69;53.08
49030;BME280;43337;52.070;4.508;2023-05-29T10:42:48;102782.97;;;18.75;55.65
49030;BME280;43337;52.070;4.508;2023-05-29T10:50:47;102775.09;;;18.92;49.99
49030;BME280;43337;52.070;4.508;2023-05-29T10:53:31;102770.34;;;18.99;50.88
49030;BME280;43337;52.070;4.508;2023-05-29T10:55:59;102773.50;;;19.07;51.68
49030;BME280;43337;52.070;4.508;2023-05-29T10:58:26;102758.41;;;19.06;52.16
49030;BME280;43337;52.070;4.508;2023-05-29T11:00:53;102767.94;;;19.12;51.98
49030;BME280;43337;52.070;4.508;2023-05-29T11:03:22;102761.06;;;19.25;52.02
49030;BME280;43337;52.070;4.508;2023-05-29T11:05:56;102774.69;;;19.38;50.93
49030;BME280;43337;52.070;4.508;2023-05-29T11:08:35;102774.63;;;19.39;49.10
49030;BME280;43337;52.070;4.508;2023-05-29T11:11:02;102765.81;;;19.37;51.17
49030;BME280;43337;52.070;4.508;2023-05-29T11:13:33;102768.69;;;19.33;49.62
49030;BME280;43337;52.070;4.508;2023-05-29T11:18:50;102762.06;;;19.41;50.82
49030;BME280;43337;52.070;4.508;2023-05-29T11:24:26;102768.38;;;19.58;50.76
49030;BME280;43337;52.070;4.508;2023-05-29T11:26:53;102779.34;;;19.51;51.31
49030;BME280;43337;52.070;4.508;2023-05-29T11:29:23;102765.13;;;19.51;50.14
49030;BME280;43337;52.070;4.508;2023-05-29T11:32:02;102766.94;;;19.50;49.36
49030;BME280;43337;52.070;4.508;2023-05-29T11:34:29;102769.31;;;19.57;50.78
49030;BME280;43337;52.070;4.508;2023-05-29T11:37:02;102762.22;;;19.56;47.25
49030;BME280;43337;52.070;4.508;2023-05-29T11:39:28;102775.31;;;19.62;49.43
49030;BME280;43337;52.070;4.508;2023-05-29T11:41:54;102780.28;;;19.69;48.64
49030;BME280;43337;52.070;4.508;2023-05-29T11:44:20;102792.56;;;19.73;47.72
49030;BME280;43337;52.070;4.508;2023-05-29T11:46:46;102778.19;;;19.76;47.84
49030;BME280;43337;52.070;4.508;2023-05-29T11:49:11;102782.50;;;19.79;47.97
49030;BME280;43337;52.070;4.508;2023-05-29T11:51:37;102767.50;;;19.76;47.98
49030;BME280;43337;52.070;4.508;2023-05-29T11:54:02;102767.31;;;19.79;47.89
49030;BME280;43337;52.070;4.508;2023-05-29T11:56:29;102758.13;;;19.85;48.41
49030;BME280;43337;52.070;4.508;2023-05-29T11:58:58;102756.63;;;19.96;46.71
49030;BME280;43337;52.070;4.508;2023-05-29T12:01:25;102777.38;;;20.09;46.96
49030;BME280;43337;52.070;4.508;2023-05-29T12:03:52;102757.97;;;20.05;46.98
49030;BME280;43337;52.070;4.508;2023-05-29T12:06:31;102772.19;;;20.23;45.35
49030;BME280;43337;52.070;4.508;2023-05-29T12:08:57;102758.81;;;20.23;47.27
49030;BME280;43337;52.070;4.508;2023-05-29T12:11:25;102763.44;;;20.37;46.43
49030;BME280;43337;52.070;4.508;2023-05-29T12:14:01;102774.44;;;20.48;45.35
49030;BME280;43337;52.070;4.508;2023-05-29T12:16:30;102762.56;;;20.54;45.82
49030;BME280;43337;52.070;4.508;2023-05-29T12:18:57;102762.88;;;20.65;46.19
49030;BME280;43337;52.070;4.508;2023-05-29T12:21:23;102763.91;;;20.78;45.92
49030;BME280;43337;52.070;4.508;2023-05-29T12:23:53;102754.00;;;20.80;45.22
49030;BME280;43337;52.070;4.508;2023-05-29T12:26:22;102743.88;;;20.69;45.15
49030;BME280;43337;52.070;4.508;2023-05-29T12:28:49;102743.72;;;20.72;45.61
49030;BME280;43337;52.070;4.508;2023-05-29T12:31:26;102729.34;;;20.58;45.10
49030;BME280;43337;52.070;4.508;2023-05-29T12:33:52;102754.84;;;20.65;45.89
49030;BME280;43337;52.070;4.508;2023-05-29T12:36:18;102753.00;;;20.48;45.81
49030;BME280;43337;52.070;4.508;2023-05-29T12:41:34;102749.84;;;20.24;43.79
49030;BME280;43337;52.070;4.508;2023-05-29T12:44:05;102757.72;;;20.27;45.82
49030;BME280;43337;52.070;4.508;2023-05-29T12:46:41;102749.53;;;20.13;46.15
49030;BME280;43337;52.070;4.508;2023-05-29T12:49:17;102766.44;;;20.13;47.49
49030;BME280;43337;52.070;4.508;2023-05-29T12:51:45;102764.72;;;20.12;47.86
49030;BME280;43337;52.070;4.508;2023-05-29T12:54:15;102753.41;;;20.07;48.44
49030;BME280;43337;52.070;4.508;2023-05-29T12:56:41;102762.22;;;20.09;48.60
49030;BME280;43337;52.070;4.508;2023-05-29T12:59:07;102757.19;;;20.03;48.62
49030;BME280;43337;52.070;4.508;2023-05-29T13:01:33;102765.13;;;20.05;49.05
49030;BME280;43337;52.070;4.508;2023-05-29T13:03:58;102754.72;;;19.98;49.52
49030;BME280;43337;52.070;4.508;2023-05-29T13:06:23;102769.47;;;20.07;49.50
49030;BME280;43337;52.070;4.508;2023-05-29T13:08:49;102736.25;;;19.94;49.31
49030;BME280;43337;52.070;4.508;2023-05-29T13:11:14;102757.41;;;19.98;49.35